createdAt,value
2022-07-26T00:00:19.970Z,32.40
2022-07-26T00:02:48.550Z,32.30
2022-07-26T00:05:16.343Z,32.19
2022-07-26T00:07:43.903Z,32.13
2022-07-26T00:10:11.797Z,31.96
2022-07-26T00:12:39.011Z,32.00
2022-07-26T00:15:07.340Z,32.16
2022-07-26T00:17:34.902Z,32.18
2022-07-26T00:20:02.349Z,32.20
2022-07-26T00:22:35.589Z,32.21
2022-07-26T00:25:03.856Z,32.14
2022-07-26T00:27:31.168Z,32.13
2022-07-26T00:29:58.382Z,32.01
2022-07-26T00:32:25.918Z,31.98
2022-07-26T00:34:53.205Z,32.02
2022-07-26T00:37:21.126Z,31.86
2022-07-26T00:39:48.938Z,31.73
2022-07-26T00:42:16.358Z,31.78
2022-07-26T00:44:45.202Z,31.90
2022-07-26T00:47:12.939Z,31.84
2022-07-26T00:49:40.263Z,31.80
2022-07-26T00:52:08.033Z,31.73
2022-07-26T00:54:36.258Z,31.79
2022-07-26T00:57:03.837Z,31.77
2022-07-26T00:59:31.008Z,31.57
2022-07-26T01:01:58.683Z,31.55
2022-07-26T01:04:25.993Z,31.67
2022-07-26T01:06:53.423Z,31.50
2022-07-26T01:09:20.860Z,31.34
2022-07-26T01:11:48.123Z,31.42
2022-07-26T01:14:17.045Z,31.42
2022-07-26T01:16:44.508Z,31.53
2022-07-26T01:19:11.696Z,31.36
2022-07-26T01:21:38.878Z,31.34
2022-07-26T01:24:06.679Z,31.45
2022-07-26T01:26:34.397Z,31.35
2022-07-26T01:29:01.577Z,31.36
2022-07-26T01:31:29.144Z,31.29
2022-07-26T01:33:56.403Z,31.42
2022-07-26T01:36:23.722Z,31.27
2022-07-26T01:38:51.172Z,31.41
2022-07-26T01:41:18.370Z,31.50
2022-07-26T01:43:58.499Z,31.38
2022-07-26T01:46:25.805Z,31.41
2022-07-26T01:48:53.077Z,31.02
2022-07-26T01:51:20.564Z,31.21
2022-07-26T01:53:47.739Z,31.33
2022-07-26T01:56:15.210Z,31.34
2022-07-26T01:58:42.672Z,31.25
2022-07-26T02:01:09.932Z,31.27
2022-07-26T02:03:37.403Z,31.30
2022-07-26T02:06:05.436Z,31.19
2022-07-26T02:08:32.683Z,31.18
2022-07-26T02:11:03.259Z,31.27
2022-07-26T02:13:35.688Z,31.29
2022-07-26T02:16:08.062Z,31.33
2022-07-26T02:18:36.599Z,31.19
2022-07-26T02:21:04.901Z,31.15
2022-07-26T02:23:32.179Z,31.08
2022-07-26T02:25:59.667Z,31.06
2022-07-26T02:28:27.411Z,31.06
2022-07-26T02:30:55.040Z,31.04
2022-07-26T02:33:24.162Z,31.00
2022-07-26T02:35:51.609Z,31.01
2022-07-26T02:38:18.867Z,30.96
2022-07-26T02:40:47.113Z,31.01
2022-07-26T02:43:14.587Z,30.89
2022-07-26T02:45:41.756Z,30.87
2022-07-26T02:48:08.935Z,30.74
2022-07-26T02:50:36.442Z,30.78
2022-07-26T02:53:03.665Z,30.76
2022-07-26T02:55:30.906Z,30.76
2022-07-26T02:57:58.361Z,30.94
2022-07-26T03:00:26.295Z,30.78
2022-07-26T03:02:53.567Z,30.80
2022-07-26T03:05:21.261Z,30.66
2022-07-26T03:07:48.443Z,30.72
2022-07-26T03:10:15.666Z,30.84
2022-07-26T03:12:43.148Z,30.84
2022-07-26T03:15:10.601Z,30.90
2022-07-26T03:17:37.818Z,30.83
2022-07-26T03:20:05.519Z,30.85
2022-07-26T03:22:32.732Z,30.90
2022-07-26T03:25:00.002Z,30.90
2022-07-26T03:27:27.462Z,30.85
2022-07-26T03:29:54.704Z,30.82
2022-07-26T03:32:21.954Z,30.87
2022-07-26T03:34:49.434Z,30.93
2022-07-26T03:37:16.827Z,30.84
2022-07-26T03:39:44.104Z,30.93
2022-07-26T03:42:11.571Z,30.59
2022-07-26T03:44:38.938Z,30.64
2022-07-26T03:47:06.149Z,30.85
2022-07-26T03:49:33.577Z,30.76
2022-07-26T03:52:00.746Z,30.70
2022-07-26T03:54:27.936Z,31.01
2022-07-26T03:56:55.496Z,30.95
2022-07-26T03:59:24.188Z,30.98
2022-07-26T04:01:51.768Z,31.08
2022-07-26T04:04:19.384Z,31.08
2022-07-26T04:06:52.458Z,31.23
2022-07-26T04:09:20.710Z,31.31
2022-07-26T04:11:48.668Z,31.35
2022-07-26T04:14:15.883Z,31.37
2022-07-26T04:16:44.035Z,31.56
2022-07-26T04:19:11.346Z,31.68
2022-07-26T04:21:38.576Z,31.59
2022-07-26T04:24:06.431Z,31.76
2022-07-26T04:26:33.754Z,30.13
2022-07-26T04:29:00.944Z,30.40
2022-07-26T04:31:28.509Z,29.90
2022-07-26T04:34:03.518Z,31.26
2022-07-26T04:36:31.014Z,31.98
2022-07-26T04:38:58.377Z,31.42
2022-07-26T04:41:25.782Z,28.71
2022-07-26T04:43:53.345Z,28.43
2022-07-26T04:46:20.554Z,29.28
2022-07-26T04:48:47.838Z,29.98
2022-07-26T04:51:15.385Z,29.27
2022-07-26T04:53:42.552Z,29.96
2022-07-26T04:56:09.798Z,29.95
2022-07-26T04:58:37.262Z,29.90
2022-07-26T05:01:11.633Z,30.30
2022-07-26T05:03:39.243Z,30.44
2022-07-26T05:06:06.835Z,31.36
2022-07-26T05:08:34.025Z,31.53
2022-07-26T05:11:01.572Z,31.53
2022-07-26T05:13:29.661Z,31.30
2022-07-26T05:15:59.463Z,30.57
2022-07-26T05:18:27.470Z,31.44
2022-07-26T05:20:56.489Z,31.83
2022-07-26T05:23:23.697Z,31.29
2022-07-26T05:25:52.798Z,30.99
2022-07-26T05:28:20.344Z,31.22
2022-07-26T05:31:00.048Z,30.44
2022-07-26T05:33:47.870Z,31.10
2022-07-26T05:36:15.103Z,29.72
2022-07-26T05:38:42.500Z,30.58
2022-07-26T05:41:10.157Z,31.23
2022-07-26T05:43:40.581Z,31.19
2022-07-26T05:46:10.526Z,32.25
2022-07-26T05:48:38.986Z,31.69
2022-07-26T05:51:06.253Z,30.97
2022-07-26T05:53:33.715Z,30.72
2022-07-26T05:56:00.905Z,31.35
2022-07-26T05:58:28.104Z,32.27
2022-07-26T06:01:30.430Z,31.73
2022-07-26T06:04:12.298Z,30.24
2022-07-26T06:06:39.924Z,31.44
2022-07-26T06:09:07.394Z,31.71
2022-07-26T06:11:34.626Z,31.64
2022-07-26T06:14:01.813Z,31.19
2022-07-26T06:16:31.632Z,30.87
2022-07-26T06:18:58.803Z,30.28
2022-07-26T06:21:26.205Z,30.81
2022-07-26T06:23:54.047Z,30.71
2022-07-26T06:26:23.776Z,30.59
2022-07-26T06:28:53.789Z,31.16
2022-07-26T06:31:21.310Z,31.13
2022-07-26T06:33:48.563Z,31.42
2022-07-26T06:36:15.872Z,31.29
2022-07-26T06:38:43.437Z,30.83
2022-07-26T06:41:10.810Z,30.50
2022-07-26T06:43:40.361Z,30.99
2022-07-26T06:46:07.852Z,30.54
2022-07-26T06:48:35.345Z,30.37
2022-07-26T06:51:02.542Z,30.50
2022-07-26T06:53:30.638Z,30.77
2022-07-26T06:55:57.886Z,31.15
2022-07-26T06:58:25.218Z,30.98
2022-07-26T07:00:52.718Z,30.29
2022-07-26T07:03:20.041Z,31.69
2022-07-26T07:05:49.989Z,31.77
2022-07-26T07:08:18.042Z,31.84
2022-07-26T07:10:45.388Z,31.34
2022-07-26T07:13:12.560Z,30.84
2022-07-26T07:15:40.020Z,31.33
2022-07-26T07:18:07.189Z,31.50
2022-07-26T07:20:34.834Z,31.56
2022-07-26T07:23:02.352Z,31.41
2022-07-26T07:25:30.933Z,30.78
2022-07-26T07:27:59.083Z,31.32
2022-07-26T07:30:27.354Z,31.62
2022-07-26T07:32:55.883Z,32.00
2022-07-26T07:35:23.932Z,31.63
2022-07-26T07:37:53.391Z,31.21
2022-07-26T07:40:22.148Z,31.57
2022-07-26T07:42:49.841Z,31.03
2022-07-26T07:45:17.325Z,31.22
2022-07-26T07:47:44.551Z,30.97
2022-07-26T07:50:11.856Z,30.96
2022-07-26T07:52:39.441Z,31.74
2022-07-26T07:55:36.412Z,30.71
2022-07-26T07:57:55.624Z,30.69
2022-07-26T08:00:27.383Z,31.77
2022-07-26T08:02:55.142Z,31.71
2022-07-26T08:05:24.423Z,30.13
2022-07-26T08:07:52.604Z,31.05
2022-07-26T08:10:20.203Z,30.73
2022-07-26T08:12:47.512Z,30.80
2022-07-26T08:15:19.392Z,30.98
2022-07-26T08:17:53.734Z,32.10
2022-07-26T08:20:23.484Z,31.92
2022-07-26T08:22:51.772Z,31.56
2022-07-26T08:25:18.995Z,31.23
2022-07-26T08:28:02.543Z,31.20
2022-07-26T08:30:30.855Z,31.04
2022-07-26T08:32:58.169Z,31.54
2022-07-26T08:35:25.386Z,30.87
2022-07-26T08:37:52.862Z,31.20
2022-07-26T08:40:20.459Z,31.09
2022-07-26T08:42:52.648Z,30.37
2022-07-26T08:45:24.075Z,31.21
2022-07-26T08:48:15.991Z,31.54
2022-07-26T08:50:40.270Z,31.53
2022-07-26T08:53:09.351Z,31.41
2022-07-26T08:56:04.329Z,31.21
2022-07-26T08:58:24.959Z,30.74
2022-07-26T09:01:12.937Z,31.67
2022-07-26T09:03:41.239Z,31.20
2022-07-26T09:06:12.491Z,31.25
2022-07-26T09:08:39.775Z,31.44
2022-07-26T09:11:29.537Z,31.67
2022-07-26T09:14:05.184Z,31.60
2022-07-26T09:16:36.221Z,31.59
2022-07-26T09:19:17.691Z,30.56
2022-07-26T09:21:46.601Z,31.36
2022-07-26T09:24:14.428Z,30.89
2022-07-26T09:26:41.633Z,31.46
2022-07-26T09:29:11.113Z,30.50
2022-07-26T09:31:39.509Z,31.05
2022-07-26T09:34:07.430Z,31.13
2022-07-26T09:36:49.981Z,30.39
2022-07-26T09:39:17.158Z,30.59
2022-07-26T09:41:44.692Z,30.29
2022-07-26T09:44:30.711Z,29.38
2022-07-26T09:46:58.655Z,30.17
2022-07-26T09:49:39.949Z,29.41
2022-07-26T09:52:15.126Z,28.80
2022-07-26T09:54:45.912Z,29.74
2022-07-26T09:57:17.419Z,29.14
2022-07-26T09:59:44.675Z,27.87
2022-07-26T10:02:14.025Z,29.15
2022-07-26T10:04:42.069Z,29.29
2022-07-26T10:07:12.351Z,29.45
2022-07-26T10:09:41.620Z,28.13
2022-07-26T10:12:09.430Z,27.40
2022-07-26T10:14:38.214Z,27.31
2022-07-26T10:17:26.808Z,27.59
2022-07-26T10:20:02.467Z,27.17
2022-07-26T10:22:30.707Z,27.76
2022-07-26T10:24:59.213Z,27.50
2022-07-26T10:27:36.807Z,27.93
2022-07-26T10:30:16.168Z,27.53
2022-07-26T10:33:01.993Z,27.56
2022-07-26T10:35:29.143Z,27.52
2022-07-26T10:38:04.158Z,27.30
2022-07-26T10:40:31.539Z,27.37
2022-07-26T10:43:37.917Z,26.64
2022-07-26T10:46:15.156Z,27.12
2022-07-26T10:49:04.547Z,26.83
2022-07-26T10:51:32.878Z,27.19
2022-07-26T10:54:04.461Z,26.48
2022-07-26T10:56:33.772Z,27.04
2022-07-26T10:59:01.798Z,27.62
2022-07-26T11:01:32.610Z,27.42
2022-07-26T11:03:59.833Z,27.24
2022-07-26T11:06:28.062Z,27.98
2022-07-26T11:08:56.017Z,27.11
2022-07-26T11:11:29.979Z,27.48
2022-07-26T11:14:08.829Z,27.73
2022-07-26T11:16:43.853Z,28.17
2022-07-26T11:19:15.498Z,27.22
2022-07-26T11:21:43.828Z,27.61
2022-07-26T11:24:11.705Z,28.16
2022-07-26T11:26:42.867Z,28.10
2022-07-26T11:29:10.162Z,28.29
2022-07-26T11:31:50.368Z,28.43
2022-07-26T11:34:25.940Z,28.12
2022-07-26T11:36:54.800Z,28.16
2022-07-26T11:39:21.993Z,27.76
2022-07-26T11:41:49.649Z,27.62
2022-07-26T11:44:17.939Z,28.05
2022-07-26T11:46:48.252Z,28.86
2022-07-26T11:49:17.019Z,29.13
2022-07-26T11:51:50.669Z,28.61
2022-07-26T11:54:18.343Z,28.98
2022-07-26T11:57:01.931Z,28.28
2022-07-26T11:59:33.827Z,27.92
2022-07-26T12:02:02.956Z,27.35
2022-07-26T12:04:31.598Z,27.92
2022-07-26T12:06:59.080Z,27.93
2022-07-26T12:09:32.486Z,26.85
2022-07-26T12:12:00.188Z,27.97
2022-07-26T12:14:31.313Z,28.02
2022-07-26T12:16:58.674Z,28.72
2022-07-26T12:19:27.308Z,28.53
2022-07-26T12:21:55.979Z,28.23
2022-07-26T12:24:39.818Z,28.89
2022-07-26T12:27:10.250Z,28.31
2022-07-26T12:29:38.755Z,28.06
2022-07-26T12:32:11.951Z,28.78
2022-07-26T12:34:40.892Z,28.72
2022-07-26T12:37:15.544Z,29.05
2022-07-26T12:39:43.930Z,28.44
2022-07-26T12:42:22.004Z,28.86
2022-07-26T12:44:49.528Z,28.70
2022-07-26T12:47:17.176Z,28.95
2022-07-26T12:49:48.224Z,28.68
2022-07-26T12:52:16.538Z,28.25
2022-07-26T12:54:47.577Z,28.17
2022-07-26T12:57:14.979Z,28.00
2022-07-26T12:59:44.890Z,27.85
2022-07-26T13:02:12.682Z,28.49
2022-07-26T13:04:40.171Z,28.38
2022-07-26T13:07:07.741Z,28.32
2022-07-26T13:09:35.126Z,28.00
2022-07-26T13:12:03.057Z,28.85
2022-07-26T13:14:31.613Z,28.06
2022-07-26T13:16:58.981Z,28.79
2022-07-26T13:19:26.198Z,28.82
2022-07-26T13:21:53.695Z,28.55
2022-07-26T13:24:20.894Z,29.47
2022-07-26T13:26:49.969Z,29.33
2022-07-26T13:29:17.834Z,29.22
2022-07-26T13:31:45.458Z,29.34
2022-07-26T13:34:12.789Z,29.90
2022-07-26T13:36:40.693Z,30.30
2022-07-26T13:39:07.899Z,29.23
2022-07-26T13:41:35.898Z,29.77
2022-07-26T13:44:05.262Z,29.35
2022-07-26T13:46:33.680Z,30.22
2022-07-26T13:49:01.943Z,29.41
2022-07-26T13:51:49.967Z,30.01
2022-07-26T13:54:18.009Z,28.78
2022-07-26T13:56:49.543Z,29.52
2022-07-26T13:59:16.887Z,30.28
2022-07-26T14:01:45.286Z,28.57
2022-07-26T14:04:13.684Z,29.54
2022-07-26T14:06:41.167Z,29.70
2022-07-26T14:09:10.916Z,29.78
2022-07-26T14:11:38.655Z,30.04
2022-07-26T14:14:08.054Z,29.85
2022-07-26T14:16:35.689Z,29.61
2022-07-26T14:19:03.504Z,29.23
2022-07-26T14:21:43.621Z,30.49
2022-07-26T14:24:15.112Z,30.06
2022-07-26T14:26:43.852Z,29.61
2022-07-26T14:29:11.030Z,29.40
2022-07-26T14:31:38.605Z,30.86
2022-07-26T14:34:05.853Z,30.26
2022-07-26T14:36:33.025Z,29.41
2022-07-26T14:39:00.790Z,29.93
2022-07-26T14:41:28.126Z,29.70
2022-07-26T14:43:55.668Z,30.28
2022-07-26T14:46:23.342Z,29.76
2022-07-26T14:48:55.031Z,29.37
2022-07-26T14:51:22.747Z,30.63
2022-07-26T14:53:49.957Z,29.98
2022-07-26T14:56:17.308Z,30.53
2022-07-26T14:58:44.762Z,30.04
2022-07-26T15:01:12.033Z,30.09
2022-07-26T15:03:39.478Z,29.90
2022-07-26T15:06:06.910Z,30.06
2022-07-26T15:08:34.143Z,29.86
2022-07-26T15:11:01.467Z,30.13
2022-07-26T15:13:29.029Z,30.34
2022-07-26T15:15:56.585Z,30.02
2022-07-26T15:18:23.938Z,30.27
2022-07-26T15:20:52.336Z,30.49
2022-07-26T15:23:19.580Z,29.03
2022-07-26T15:25:48.688Z,29.91
2022-07-26T15:28:16.284Z,30.64
2022-07-26T15:30:43.641Z,30.20
2022-07-26T15:33:10.922Z,30.96
2022-07-26T15:35:40.581Z,30.12
2022-07-26T15:38:07.756Z,30.23
2022-07-26T15:40:35.222Z,30.34
2022-07-26T15:43:03.019Z,30.99
2022-07-26T15:45:30.337Z,30.35
2022-07-26T15:48:14.644Z,29.57
2022-07-26T15:50:43.652Z,29.61
2022-07-26T15:53:10.869Z,30.49
2022-07-26T15:55:38.059Z,30.97
2022-07-26T15:58:05.550Z,30.77
2022-07-26T16:00:32.855Z,30.86
2022-07-26T16:03:00.414Z,29.88
2022-07-26T16:05:27.789Z,29.11
2022-07-26T16:07:54.970Z,30.61
2022-07-26T16:10:22.490Z,29.24
2022-07-26T16:12:49.691Z,30.46
2022-07-26T16:15:17.052Z,31.00
2022-07-26T16:17:44.575Z,29.99
2022-07-26T16:20:11.842Z,30.41
2022-07-26T16:22:42.161Z,29.84
2022-07-26T16:25:13.739Z,30.50
2022-07-26T16:27:41.562Z,29.31
2022-07-26T16:30:09.263Z,30.13
2022-07-26T16:32:36.724Z,29.70
2022-07-26T16:35:03.976Z,30.86
2022-07-26T16:37:31.151Z,29.90
2022-07-26T16:39:58.603Z,30.05
2022-07-26T16:42:25.789Z,30.50
2022-07-26T16:44:53.038Z,30.37
2022-07-26T16:47:22.287Z,30.18
2022-07-26T16:49:49.554Z,30.44
2022-07-26T16:52:16.877Z,30.13
2022-07-26T16:54:44.352Z,30.27
2022-07-26T16:57:11.671Z,30.46
2022-07-26T16:59:39.904Z,29.71
2022-07-26T17:02:09.155Z,30.43
2022-07-26T17:04:36.471Z,29.66
2022-07-26T17:07:25.795Z,29.67
2022-07-26T17:09:51.182Z,29.68
2022-07-26T17:12:18.397Z,29.86
2022-07-26T17:14:45.770Z,30.29
2022-07-26T17:17:13.312Z,30.75
2022-07-26T17:19:40.522Z,30.10
2022-07-26T17:22:07.726Z,30.39
2022-07-26T17:24:35.222Z,30.35
2022-07-26T17:27:02.404Z,30.23
2022-07-26T17:29:29.658Z,30.21
2022-07-26T17:31:57.115Z,30.23
2022-07-26T17:34:24.497Z,30.87
2022-07-26T17:37:01.801Z,30.18
2022-07-26T17:39:52.771Z,29.84
2022-07-26T17:42:20.583Z,29.13
2022-07-26T17:44:49.227Z,29.74
2022-07-26T17:47:28.317Z,30.16
2022-07-26T17:50:26.310Z,30.27
2022-07-26T17:52:48.293Z,29.86
2022-07-26T17:55:15.804Z,29.66
2022-07-26T17:57:42.996Z,30.44
2022-07-26T18:00:10.446Z,29.05
2022-07-26T18:02:37.943Z,29.17
2022-07-26T18:05:05.485Z,29.60
2022-07-26T18:07:32.744Z,29.72
2022-07-26T18:10:00.224Z,29.19
2022-07-26T18:12:27.451Z,28.66
2022-07-26T18:14:54.640Z,29.13
2022-07-26T18:17:22.172Z,29.20
2022-07-26T18:19:49.507Z,29.15
2022-07-26T18:22:16.761Z,29.64
2022-07-26T18:24:44.196Z,29.20
2022-07-26T18:27:12.426Z,29.81
2022-07-26T18:29:39.691Z,29.93
2022-07-26T18:32:07.173Z,29.68
2022-07-26T18:34:34.337Z,30.45
2022-07-26T18:37:01.513Z,29.68
2022-07-26T18:39:30.539Z,29.97
2022-07-26T18:42:00.833Z,30.50
2022-07-26T18:44:28.008Z,30.62
2022-07-26T18:46:56.307Z,30.67
2022-07-26T18:49:30.869Z,30.45
2022-07-26T18:52:04.275Z,30.32
2022-07-26T18:54:36.403Z,30.18
2022-07-26T18:57:04.180Z,29.80
2022-07-26T18:59:31.647Z,29.99
2022-07-26T19:02:00.144Z,30.41
2022-07-26T19:04:28.020Z,28.89
2022-07-26T19:06:55.321Z,30.02
2022-07-26T19:09:22.706Z,30.17
2022-07-26T19:11:50.657Z,29.97
2022-07-26T19:14:18.175Z,30.11
2022-07-26T19:16:45.868Z,29.65
2022-07-26T19:19:17.046Z,30.02
2022-07-26T19:21:47.218Z,29.32
2022-07-26T19:24:15.120Z,29.60
2022-07-26T19:26:44.138Z,28.82
2022-07-26T19:29:12.081Z,29.70
2022-07-26T19:31:42.003Z,29.03
2022-07-26T19:34:09.896Z,28.72
2022-07-26T19:36:37.471Z,29.06
2022-07-26T19:39:05.150Z,28.58
2022-07-26T19:41:32.331Z,28.54
2022-07-26T19:43:59.534Z,29.04
2022-07-26T19:46:27.043Z,28.96
2022-07-26T19:48:54.781Z,29.24
2022-07-26T19:51:21.999Z,29.47
2022-07-26T19:53:49.643Z,29.69
2022-07-26T19:56:16.882Z,29.22
2022-07-26T19:58:46.179Z,29.36
2022-07-26T20:01:13.801Z,29.78
2022-07-26T20:03:41.354Z,29.42
2022-07-26T20:06:08.900Z,29.69
2022-07-26T20:08:36.066Z,29.54
2022-07-26T20:11:03.524Z,29.97
2022-07-26T20:13:30.746Z,29.33
2022-07-26T20:15:57.928Z,29.24
2022-07-26T20:18:27.202Z,28.16
2022-07-26T20:20:56.146Z,29.25
2022-07-26T20:23:23.718Z,29.87
2022-07-26T20:25:51.266Z,29.58
2022-07-26T20:28:18.430Z,29.92
2022-07-26T20:30:48.296Z,29.12
2022-07-26T20:33:16.512Z,29.36
2022-07-26T20:35:43.996Z,28.73
2022-07-26T20:38:11.212Z,28.82
2022-07-26T20:40:38.690Z,28.98
2022-07-26T20:43:07.845Z,28.97
2022-07-26T20:45:35.033Z,29.31
2022-07-26T20:48:02.581Z,29.23
2022-07-26T20:50:30.769Z,29.46
2022-07-26T20:52:57.960Z,29.93
2022-07-26T20:55:25.384Z,29.67
2022-07-26T20:57:52.563Z,29.57
2022-07-26T21:00:20.395Z,29.33
2022-07-26T21:02:48.005Z,29.33
2022-07-26T21:05:15.313Z,29.59
2022-07-26T21:07:58.961Z,29.15
2022-07-26T21:10:29.001Z,28.14
2022-07-26T21:13:01.043Z,29.08
2022-07-26T21:15:29.037Z,29.35
2022-07-26T21:17:56.385Z,29.57
2022-07-26T21:20:23.574Z,29.51
2022-07-26T21:22:51.014Z,29.71
2022-07-26T21:25:18.258Z,29.15
2022-07-26T21:27:45.454Z,29.64
2022-07-26T21:30:13.116Z,29.85
2022-07-26T21:32:40.530Z,29.66
2022-07-26T21:35:08.037Z,29.33
2022-07-26T21:37:35.514Z,28.87
2022-07-26T21:40:02.927Z,28.71
2022-07-26T21:42:30.122Z,29.02
2022-07-26T21:44:57.556Z,28.61
2022-07-26T21:47:24.758Z,26.95
2022-07-26T21:49:51.911Z,27.76
2022-07-26T21:52:19.708Z,27.89
2022-07-26T21:54:50.280Z,27.49
2022-07-26T21:57:19.296Z,27.58
2022-07-26T21:59:46.929Z,26.97
2022-07-26T22:02:14.127Z,27.01
2022-07-26T22:04:49.448Z,27.45
2022-07-26T22:07:16.617Z,27.14
2022-07-26T22:09:43.799Z,27.70
2022-07-26T22:12:11.267Z,27.39
2022-07-26T22:14:38.427Z,27.17
2022-07-26T22:17:05.629Z,26.75
2022-07-26T22:19:33.107Z,26.87
2022-07-26T22:22:02.396Z,27.33
2022-07-26T22:24:29.585Z,28.00
2022-07-26T22:26:57.042Z,27.47
2022-07-26T22:29:24.294Z,27.40
2022-07-26T22:31:51.518Z,27.27
2022-07-26T22:34:19.028Z,26.75
2022-07-26T22:36:46.229Z,26.23
2022-07-26T22:39:15.032Z,26.04
2022-07-26T22:42:12.763Z,25.79
2022-07-26T22:44:30.014Z,26.00
2022-07-26T22:46:57.488Z,26.26
2022-07-26T22:49:24.752Z,27.02
2022-07-26T22:51:51.967Z,26.95
2022-07-26T22:54:19.414Z,27.02
2022-07-26T22:56:46.677Z,26.24
2022-07-26T22:59:14.420Z,26.11
2022-07-26T23:01:42.206Z,26.14
2022-07-26T23:04:09.518Z,26.01
2022-07-26T23:06:37.230Z,25.80
2022-07-26T23:09:05.823Z,26.71
2022-07-26T23:11:33.003Z,26.79
2022-07-26T23:14:00.395Z,26.73
2022-07-26T23:16:27.905Z,26.83
2022-07-26T23:18:56.041Z,27.25
2022-07-26T23:21:23.272Z,27.28
2022-07-26T23:23:50.716Z,27.57
2022-07-26T23:26:17.962Z,27.62
2022-07-26T23:28:45.152Z,26.99
2022-07-26T23:31:12.749Z,26.46
2022-07-26T23:33:52.059Z,26.10
2022-07-26T23:36:22.515Z,25.05
2022-07-26T23:38:49.764Z,24.89
2022-07-26T23:41:16.997Z,24.07
2022-07-26T23:43:44.669Z,25.26
2022-07-26T23:46:11.926Z,25.39
2022-07-26T23:48:39.177Z,24.34
2022-07-26T23:51:06.689Z,24.49
2022-07-26T23:53:33.860Z,25.05
2022-07-26T23:56:01.053Z,25.06
2022-07-26T23:58:28.769Z,24.97
